NCAR-RAP Real-Time Weather Data

Output produced by METARs form (14 October 2019  23:58 UTC)
found at http://weather.rap.ucar.edu/surface/
 
KSAT 142351Z 13006KT 10SM BKN070 BKN140 BKN250 30/18 A2990 RMK AO2 SLP106 T03000183 10328 20272 55002
KSAT 142251Z 13006KT 10SM SCT060 BKN130 BKN250 32/19 A2990 RMK AO2 SLP105 T03170189
KSAT 142151Z 21007KT 10SM FEW055 SCT130 BKN250 32/18 A2990 RMK AO2 SLP106 T03220183
KSAT 142051Z 18009KT 10SM BKN048 BKN150 BKN250 31/19 A2991 RMK AO2 SLP108 T03110189 56028
KSAT 141951Z VRB06KT 10SM BKN039 BKN150 BKN250 31/20 A2992 RMK AO2 SLP113 T03060200
KSAT 141851Z 22005KT 10SM SCT034 BKN140 BKN250 28/19 A2995 RMK AO2 SLP124 T02830194
KSAT 141814Z 18007KT 10SM SCT027 BKN160 BKN250 29/21 A2997 RMK AO2 T02940206
KSAT 141751Z COR VRB04KT 10SM BKN025 OVC160 27/21 A2999 RMK AO2 SLP138 T02720206 10278 20217 58010
KSAT 141651Z 00000KT 10SM SCT018 OVC150 26/21 A3001 RMK AO2 SLP146 T02610211
KSAT 141551Z 00000KT 9SM BKN015 BKN033 OVC200 25/21 A3002 RMK AO2 SLP150 T02500211
KSAT 141528Z 00000KT 6SM HZ BKN011 BKN032 OVC200 24/21 A3003 RMK AO2 T02440206
KSAT 141451Z 00000KT 8SM BKN007 OVC012 23/21 A3002 RMK AO2 SLP149 T02330206 53013
KSAT 141351Z 10004KT 10SM OVC005 22/19 A3000 RMK AO2 SLP143 T02220189
KSAT 141251Z 00000KT 10SM OVC007 22/18 A2999 RMK AO2 SLP140 T02170178
KSAT 141211Z 00000KT 10SM BKN009 OVC030 22/17 A2999 RMK AO2 T02170172
KSAT 141151Z 10004KT 10SM BKN010 OVC035 22/17 A2998 RMK AO2 SLP136 60000 T02170167 10228 20217 55001
KSAT 141051Z 00000KT 10SM BKN013 OVC050 22/14 A2997 RMK AO2 SLP132 T02220144
KSAT 141017Z 36003KT 10SM BKN014 BKN050 22/14 A2997 RMK AO2 T02220144
KSAT 140951Z 06003KT 10SM BKN017 BKN050 22/14 A2997 RMK AO2 SLP134 T02220144
KSAT 140851Z 33003KT 10SM BKN027 22/14 A2999 RMK AO2 RAB26E35 SLP138 P0000 60000 T02170144 56005
KSAT 140815Z 00000KT 10SM BKN029 BKN040 22/14 A2999 RMK AO2 T02220139
KSAT 140751Z 00000KT 10SM BKN032 BKN048 22/14 A2999 RMK AO2 SLP140 T02220139
KSAT 140651Z 00000KT 10SM BKN037 OVC055 22/13 A2999 RMK AO2 SLP140 T02220133
KSAT 140551Z 00000KT 10SM BKN034 23/13 A3000 RMK AO2 SLP143 T02280133 10239 20211 402560150 50001
KSAT 140451Z 00000KT 10SM BKN039 22/13 A3000 RMK AO2 SLP144 T02220133
KSAT 140351Z 10003KT 10SM BKN048 22/14 A3000 RMK AO2 SLP145 T02170139
KSAT 140251Z 00000KT 10SM OVC036 24/13 A3000 RMK AO2 SLP143 T02390133 53011
KSAT 140151Z 00000KT 10SM BKN042 BKN150 OVC250 24/13 A2999 RMK AO2 SLP140 T02390128
KSAT 140051Z 00000KT 10SM FEW044 BKN150 BKN250 24/13 A2998 RMK AO2 SLP136 T02390128
KSAT 132351Z 10003KT 10SM FEW047 BKN170 OVC250 24/12 A2997 RMK AO2 SLP133 T02390122 10256 20222 56003
KSAT 132251Z 16004KT 10SM FEW030 FEW047 BKN170 BKN250 25/12 A2997 RMK AO2 SLP133 T02500117
KSAT 132151Z 15004KT 10SM FEW030 SCT045 OVC180 25/11 A2997 RMK AO2 SLP134 T02500111
KSAT 132051Z 13006KT 10SM SCT030 BKN120 OVC190 25/10 A2998 RMK AO2 SLP137 T02500100 56024
KSAT 131951Z VRB04KT 10SM FEW034 BKN046 OVC120 24/08 A2999 RMK AO2 SLP142 T02440078
KSAT 131851Z 18007KT 10SM FEW030 BKN130 BKN220 25/07 A3002 RMK AO2 SLP151 T02500067
KSAT 131751Z VRB03KT 10SM BKN042 BKN100 BKN220 22/05 A3005 RMK AO2 SLP161 T02220050 10233 20161 58006
KSAT 131651Z 17005KT 10SM BKN039 BKN095 22/04 A3006 RMK AO2 SLP165 T02170039
KSAT 131551Z VRB03KT 10SM BKN038 OVC095 20/03 A3008 RMK AO2 SLP172 T02000028
KSAT 131451Z 00000KT 10SM FEW041 SCT090 BKN160 BKN250 18/02 A3007 RMK AO2 SLP168 T01830022 53010
KSAT 131351Z 10004KT 10SM BKN039 BKN250 17/02 A3005 RMK AO2 SLP164 T01720022
KSAT 131251Z 00000KT 10SM BKN036 OVC150 17/02 A3005 RMK AO2 SLP161 T01670017
KSAT 131151Z 00000KT 10SM OVC038 17/02 A3004 RMK AO2 SLP157 T01670022 10167 20150 50002
KSAT 131051Z 00000KT 10SM BKN038 OVC170 16/02 A3004 RMK AO2 SLP158 T01610017
KSAT 130951Z 32003KT 10SM BKN030 OVC170 16/01 A3004 RMK AO2 SLP157 T01610011
KSAT 130851Z 12006KT 10SM BKN035 OVC170 16/01 A3003 RMK AO2 SLP155 T01560011 58009
KSAT 130751Z 10003KT 10SM OVC035 16/M01 A3005 RMK AO2 SLP162 T01561011
KSAT 130651Z 13006KT 10SM FEW035 OVC160 16/M02 A3005 RMK AO2 SLP163 T01561017
KSAT 130551Z 11003KT 10SM SCT036 OVC160 16/M01 A3006 RMK AO2 SLP165 60000 T01611006 10200 20161 402220128 58007
KSAT 130451Z 08004KT 10SM BKN035 OVC180 17/M02 A3007 RMK AO2 RAB38E46 SLP170 P0000 T01671017
KSAT 130351Z 04004KT 10SM OVC037 17/M02 A3008 RMK AO2 SLP172 T01671022
KSAT 130251Z 04004KT 10SM BKN039 OVC180 17/M03 A3008 RMK AO2 SLP172 T01721028 53001
KSAT 130151Z 08006KT 10SM BKN039 OVC180 18/M02 A3007 RMK AO2 SLP171 T01781022
KSAT 130051Z 09006KT 10SM FEW040 BKN180 BKN250 18/M02 A3007 RMK AO2 SLP172 T01781017